Time;durP1;ratioP1;P1;durP2;ratioP2;P2;SDS_P1;SDS_P2;PMS_P1;PMS_P2;Temp;Humidity;BMP_temperature;BMP_pressure;BME280_temperature;BME280_humidity;BME280_pressure;Samples;Min_cycle;Max_cycle;Signal;HPM_P1;HPM_P2
2021/08/05 00:00:09;;;;;;;6.72;4.30;;;16.30;89.30;;;;;;5012919;28;20053;-52
2021/08/05 00:02:34;;;;;;;;;;;16.30;90.00;;;;;;4995334;28;20431;-51
2021/08/05 00:05:00;;;;;;;5.70;4.32;;;16.20;90.10;;;;;;5013329;28;19948;-53
2021/08/05 00:07:26;;;;;;;5.25;3.90;;;16.10;90.20;;;;;;5005817;28;20050;-52
2021/08/05 00:09:52;;;;;;;6.18;5.03;;;16.10;90.40;;;;;;4994926;28;20046;-51
2021/08/05 00:12:17;;;;;;;6.25;4.70;;;16.10;90.40;;;;;;4992696;28;20415;-53
2021/08/05 00:14:44;;;;;;;7.25;4.40;;;16.00;90.50;;;;;;4987496;28;20598;-50
2021/08/05 00:17:11;;;;;;;7.45;4.70;;;16.00;90.60;;;;;;4994108;28;20117;-55
2021/08/05 00:19:38;;;;;;;6.10;4.40;;;15.90;90.70;;;;;;5008560;28;20101;-54
2021/08/05 00:22:08;;;;;;;7.32;4.75;;;15.90;90.80;;;;;;4981766;28;20088;-52
2021/08/05 00:24:33;;;;;;;6.85;4.35;;;16.00;90.60;;;;;;4983714;28;20109;-50
2021/08/05 00:27:02;;;;;;;6.70;4.53;;;15.90;90.90;;;;;;4994064;28;20054;-51
2021/08/05 00:29:30;;;;;;;6.95;4.82;;;15.80;90.90;;;;;;4978642;28;20049;-54
2021/08/05 00:31:56;;;;;;;6.57;5.05;;;15.70;90.90;;;;;;4998090;28;20421;-50
2021/08/05 00:34:25;;;;;;;7.80;4.90;;;15.70;91.20;;;;;;4999387;28;20500;-50
2021/08/05 00:36:51;;;;;;;7.03;5.25;;;15.70;91.10;;;;;;4981157;28;20050;-52
2021/08/05 00:39:18;;;;;;;6.38;4.82;;;15.70;91.20;;;;;;4996388;28;20030;-51
2021/08/05 00:41:44;;;;;;;8.88;4.45;;;15.70;91.20;;;;;;4994990;28;20046;-48
2021/08/05 00:44:10;;;;;;;6.50;4.97;;;15.50;91.20;;;;;;4995211;28;20049;-47
2021/08/05 00:46:36;;;;;;;6.75;5.13;;;15.50;91.30;;;;;;5013266;28;20038;-50
2021/08/05 00:49:01;;;;;;;6.15;4.93;;;15.50;91.50;;;;;;5015325;28;20049;-54
2021/08/05 00:51:27;;;;;;;8.48;4.75;;;15.50;91.60;;;;;;5010255;28;20058;-57
2021/08/05 00:53:53;;;;;;;6.88;4.47;;;15.50;91.50;;;;;;5005309;28;20046;-57
2021/08/05 00:56:21;;;;;;;7.18;4.97;;;15.40;91.60;;;;;;5001509;28;20140;-55
2021/08/05 00:58:46;;;;;;;6.95;4.53;;;15.40;91.80;;;;;;5016402;28;20546;-57
2021/08/05 01:01:17;;;;;;;9.93;4.93;;;15.40;91.90;;;;;;4999949;28;20093;-54
2021/08/05 01:03:46;;;;;;;9.10;5.25;;;15.30;91.80;;;;;;4997385;28;20077;-57
2021/08/05 01:06:33;;;;;;;9.35;5.10;;;15.40;91.90;;;;;;4998104;28;20050;-57
2021/08/05 01:09:26;;;;;;;6.90;4.78;;;15.40;91.70;;;;;;5001193;28;20425;-57
2021/08/05 01:12:14;;;;;;;6.65;4.97;;;15.40;91.70;;;;;;5008188;28;20042;-57
2021/08/05 01:14:44;;;;;;;6.18;4.85;;;15.40;91.80;;;;;;4971346;28;20074;-57
2021/08/05 01:17:12;;;;;;;7.28;5.10;;;15.40;91.60;;;;;;5010050;28;20054;-57
2021/08/05 01:19:58;;;;;;;8.18;5.22;;;15.30;91.80;;;;;;4997052;28;20395;-58
2021/08/05 01:22:44;;;;;;;7.25;5.22;;;15.30;91.90;;;;;;4993765;28;20572;-57
2021/08/05 01:25:26;;;;;;;9.25;5.57;;;15.30;92.00;;;;;;4995324;28;20069;-54
2021/08/05 01:27:53;;;;;;;8.43;5.82;;;15.30;92.00;;;;;;4995391;28;20422;-50
2021/08/05 01:30:19;;;;;;;8.43;5.47;;;15.30;92.00;;;;;;5001510;28;20049;-53
2021/08/05 01:32:46;;;;;;;8.07;5.72;;;15.30;92.10;;;;;;5012126;28;20427;-50
2021/08/05 01:35:12;;;;;;;10.55;5.93;;;15.30;91.80;;;;;;5002974;28;20034;-49
2021/08/05 01:37:43;;;;;;;8.82;6.30;;;15.30;91.90;;;;;;5010953;28;20046;-51
2021/08/05 01:40:10;;;;;;;10.73;7.95;;;15.20;92.10;;;;;;4983271;28;20038;-51
2021/08/05 01:42:37;;;;;;;9.07;6.40;;;15.20;92.30;;;;;;4994010;28;20064;-51
2021/08/05 01:45:07;;;;;;;10.82;7.10;;;15.30;92.00;;;;;;5012964;28;20041;-51
2021/08/05 01:47:35;;;;;;;10.23;7.40;;;15.20;92.10;;;;;;4995705;28;20077;-48
2021/08/05 01:50:01;;;;;;;10.88;6.80;;;15.20;92.20;;;;;;5013070;28;20041;-51
2021/08/05 01:52:27;;;;;;;9.25;6.55;;;15.10;92.20;;;;;;4985090;28;20495;-49
2021/08/05 01:54:53;;;;;;;7.55;5.88;;;15.10;92.30;;;;;;4999147;28;20050;-48
2021/08/05 01:57:18;;;;;;;8.95;5.97;;;15.10;92.30;;;;;;5002056;28;20050;-55
2021/08/05 01:59:47;;;;;;;9.93;5.97;;;15.00;92.50;;;;;;4996498;28;20114;-55
2021/08/05 02:02:14;;;;;;;9.43;6.10;;;15.00;92.50;;;;;;4985580;28;20048;-54
2021/08/05 02:05:02;;;;;;;7.65;5.78;;;15.00;92.60;;;;;;5012073;28;20558;-55
2021/08/05 02:07:51;;;;;;;9.20;6.47;;;15.10;92.60;;;;;;4995573;28;20045;-55
2021/08/05 02:10:22;;;;;;;7.32;5.90;;;15.00;92.50;;;;;;4992116;28;20046;-55
2021/08/05 02:13:17;;;;;;;8.85;6.45;;;15.00;92.60;;;;;;4972460;28;20042;-55
2021/08/05 02:15:55;;;;;;;8.43;6.28;;;15.00;92.50;;;;;;5004570;28;20042;-55
2021/08/05 02:18:26;;;;;;;7.90;6.18;;;15.00;92.70;;;;;;4983685;28;20045;-55
2021/08/05 02:20:56;;;;;;;8.07;6.05;;;15.00;92.70;;;;;;4974670;28;20046;-53
2021/08/05 02:23:23;;;;;;;8.02;6.35;;;14.90;92.80;;;;;;5008786;28;20052;-55
2021/08/05 02:25:51;;;;;;;9.25;6.15;;;14.90;92.80;;;;;;4966396;28;20141;-55
2021/08/05 02:28:18;;;;;;;10.25;6.22;;;14.90;93.10;;;;;;5007051;28;20062;-53
2021/08/05 02:30:45;;;;;;;9.10;6.55;;;14.80;92.80;;;;;;5007072;28;20038;-55
2021/08/05 02:33:13;;;;;;;9.32;6.32;;;14.80;93.00;;;;;;4994145;28;20053;-55
2021/08/05 02:35:44;;;;;;;8.88;6.78;;;14.90;92.90;;;;;;4963874;28;20042;-54
2021/08/05 02:38:10;;;;;;;10.45;6.70;;;14.80;93.00;;;;;;4976896;28;20053;-56
2021/08/05 02:40:37;;;;;;;9.68;6.43;;;14.70;93.00;;;;;;4993457;28;20462;-56
2021/08/05 02:43:06;;;;;;;9.98;6.78;;;14.80;93.10;;;;;;5001275;28;20046;-56
2021/08/05 02:45:34;;;;;;;9.95;6.75;;;14.70;93.20;;;;;;5004548;28;20045;-55
2021/08/05 02:48:01;;;;;;;9.25;6.13;;;14.70;93.30;;;;;;4996344;28;20041;-53
2021/08/05 02:50:31;;;;;;;8.75;6.47;;;14.70;93.40;;;;;;4993761;28;20439;-55
2021/08/05 02:52:57;;;;;;;8.77;6.63;;;14.90;93.10;;;;;;5005633;28;20041;-56
2021/08/05 02:55:24;;;;;;;10.10;7.22;;;14.80;93.10;;;;;;4990202;28;20038;-53
2021/08/05 02:57:52;;;;;;;10.52;6.57;;;14.80;93.30;;;;;;4993334;28;20489;-49
2021/08/05 03:00:18;;;;;;;10.25;6.40;;;14.70;93.30;;;;;;4993329;28;20046;-51
2021/08/05 03:02:45;;;;;;;10.85;7.15;;;14.70;93.50;;;;;;5002859;28;20069;-56
2021/08/05 03:05:12;;;;;;;9.90;7.60;;;14.70;93.60;;;;;;4994211;28;20479;-55
2021/08/05 03:07:41;;;;;;;11.00;7.75;;;14.60;93.50;;;;;;5011673;28;20050;-54
2021/08/05 03:10:12;;;;;;;9.60;7.28;;;14.70;93.70;;;;;;5010442;28;20050;-52
2021/08/05 03:12:40;;;;;;;12.35;7.40;;;14.70;93.70;;;;;;4998195;28;20101;-52
2021/08/05 03:15:06;;;;;;;10.73;7.75;;;14.60;93.70;;;;;;4998123;28;20562;-53
2021/08/05 03:17:32;;;;;;;8.77;7.30;;;14.60;93.90;;;;;;5013014;28;20049;-55
2021/08/05 03:19:59;;;;;;;10.25;7.00;;;14.60;93.80;;;;;;5010574;28;20084;-52
2021/08/05 03:22:24;;;;;;;12.10;8.18;;;14.60;93.90;;;;;;4998664;28;20069;-54
2021/08/05 03:24:51;;;;;;;11.25;8.55;;;14.60;94.00;;;;;;5009727;28;20152;-54
2021/08/05 03:27:18;;;;;;;11.95;8.18;;;14.50;93.90;;;;;;5007016;28;20402;-52
2021/08/05 03:29:45;;;;;;;12.27;8.30;;;14.50;94.10;;;;;;4999820;28;20045;-52
2021/08/05 03:32:12;;;;;;;11.65;8.45;;;14.50;94.20;;;;;;5000384;28;20042;-51
2021/08/05 03:34:38;;;;;;;11.85;8.25;;;14.60;94.10;;;;;;5001828;28;20042;-49
2021/08/05 03:37:04;;;;;;;12.13;8.98;;;14.60;94.20;;;;;;4968396;28;20099;-54
2021/08/05 03:39:30;;;;;;;11.55;8.45;;;14.60;94.20;;;;;;5005133;28;20050;-54
2021/08/05 03:41:55;;;;;;;10.52;8.43;;;14.60;94.20;;;;;;5002226;28;20034;-54
2021/08/05 03:44:23;;;;;;;11.23;8.48;;;14.60;94.20;;;;;;5000778;28;20038;-54
2021/08/05 03:46:48;;;;;;;11.90;8.80;;;14.50;94.30;;;;;;5000218;28;20081;-54
2021/08/05 03:49:15;;;;;;;12.10;8.98;;;14.60;94.30;;;;;;5001581;28;20081;-54
2021/08/05 03:51:41;;;;;;;11.95;9.18;;;14.50;94.30;;;;;;4990483;28;20050;-54
2021/08/05 03:54:08;;;;;;;12.18;9.98;;;14.50;94.40;;;;;;4960920;28;20038;-54
2021/08/05 03:56:35;;;;;;;13.52;9.27;;;14.50;94.60;;;;;;4973226;28;20039;-55
2021/08/05 03:59:02;;;;;;;10.75;9.18;;;14.50;94.50;;;;;;4991657;28;20463;-55
2021/08/05 04:01:28;;;;;;;11.68;9.13;;;14.50;94.50;;;;;;4979020;28;20475;-55
2021/08/05 04:03:54;;;;;;;11.40;9.55;;;14.50;94.60;;;;;;4976426;28;20116;-55
2021/08/05 04:06:21;;;;;;;12.60;9.30;;;14.50;94.50;;;;;;4996605;28;20042;-55
2021/08/05 04:08:47;;;;;;;10.70;9.23;;;14.50;94.50;;;;;;4977804;28;20045;-55
2021/08/05 04:11:13;;;;;;;13.45;9.52;;;14.50;94.60;;;;;;5008020;28;20048;-55
2021/08/05 04:13:39;;;;;;;14.63;9.85;;;14.50;94.70;;;;;;5008384;28;20502;-55
2021/08/05 04:16:04;;;;;;;11.77;9.52;;;14.50;94.70;;;;;;4995922;28;20054;-53
2021/08/05 04:18:33;;;;;;;12.40;10.05;;;14.40;94.60;;;;;;4973400;28;20058;-52
2021/08/05 04:21:04;;;;;;;15.77;10.65;;;14.40;94.80;;;;;;4994956;28;20101;-56
2021/08/05 04:23:35;;;;;;;14.13;10.68;;;14.40;94.80;;;;;;5000881;28;20046;-55
2021/08/05 04:26:01;;;;;;;14.82;10.90;;;14.40;94.80;;;;;;5011536;28;20054;-52
2021/08/05 04:28:35;;;;;;;13.70;11.05;;;14.40;95.00;;;;;;5007824;28;20049;-55
2021/08/05 04:31:01;;;;;;;12.50;10.15;;;14.40;94.90;;;;;;5007756;28;20278;-54
2021/08/05 04:33:28;;;;;;;14.40;10.98;;;14.40;94.70;;;;;;4995267;28;20482;-55
2021/08/05 04:35:55;;;;;;;13.27;10.27;;;14.40;94.70;;;;;;4991401;28;20034;-56
2021/08/05 04:38:21;;;;;;;13.45;10.52;;;14.40;94.70;;;;;;5011826;28;20473;-52
2021/08/05 04:40:47;;;;;;;13.13;11.15;;;14.40;94.80;;;;;;5003731;28;20042;-55
2021/08/05 04:43:12;;;;;;;15.25;11.10;;;14.40;94.70;;;;;;5000249;28;20109;-53
2021/08/05 04:45:38;;;;;;;14.32;11.95;;;14.50;94.80;;;;;;5001972;28;20092;-52
2021/08/05 04:48:07;;;;;;;14.95;11.52;;;14.50;95.00;;;;;;5006444;28;20049;-53
2021/08/05 04:50:39;;;;;;;15.07;11.48;;;14.50;94.80;;;;;;4987690;28;20041;-52
2021/08/05 04:53:07;;;;;;;16.10;11.10;;;14.50;94.90;;;;;;4998078;28;20039;-51
2021/08/05 04:55:37;;;;;;;12.52;10.30;;;14.50;95.00;;;;;;4995616;28;20462;-52
2021/08/05 04:58:06;;;;;;;13.63;10.73;;;14.40;95.00;;;;;;4995684;28;20113;-52
2021/08/05 05:00:37;;;;;;;13.77;10.80;;;14.40;95.10;;;;;;5000994;28;20041;-49
2021/08/05 05:03:04;;;;;;;16.52;11.57;;;14.40;95.20;;;;;;4989339;28;20042;-53
2021/08/05 05:05:35;;;;;;;16.23;11.35;;;14.40;95.30;;;;;;5000231;28;20465;-53
2021/08/05 05:08:19;;;;;;;13.73;11.15;;;14.40;95.30;;;;;;5007095;28;20513;-52
2021/08/05 05:10:47;;;;;;;15.40;12.15;;;14.40;95.30;;;;;;4986823;28;20077;-52
2021/08/05 05:13:13;;;;;;;14.98;11.52;;;14.40;95.30;;;;;;4994531;28;20054;-54
2021/08/05 05:15:39;;;;;;;15.60;12.05;;;14.40;95.20;;;;;;4996368;28;20030;-52
2021/08/05 05:18:05;;;;;;;14.13;12.35;;;14.40;95.30;;;;;;4999817;28;20049;-54
2021/08/05 05:20:32;;;;;;;15.27;12.07;;;14.40;95.40;;;;;;4997767;28;20128;-54
2021/08/05 05:22:59;;;;;;;13.02;10.98;;;14.40;95.50;;;;;;5003970;28;20080;-54
2021/08/05 05:25:28;;;;;;;14.23;11.77;;;14.40;95.30;;;;;;5007223;28;20043;-51
2021/08/05 05:27:54;;;;;;;14.90;11.43;;;14.40;95.40;;;;;;5005512;28;20130;-52
2021/08/05 05:30:20;;;;;;;15.60;12.05;;;14.40;95.40;;;;;;5001624;28;20049;-51
2021/08/05 05:32:47;;;;;;;15.00;12.23;;;14.40;95.30;;;;;;5001753;28;20044;-51
2021/08/05 05:35:15;;;;;;;14.48;11.68;;;14.40;95.30;;;;;;4999319;28;20046;-54
2021/08/05 05:37:42;;;;;;;15.25;11.75;;;14.50;95.40;;;;;;5003760;28;20044;-54
2021/08/05 05:40:10;;;;;;;15.45;12.35;;;14.50;95.40;;;;;;4954587;28;20136;-52
2021/08/05 05:42:36;;;;;;;17.40;12.73;;;14.60;95.60;;;;;;5005834;28;20037;-53
2021/08/05 05:45:12;;;;;;;14.45;12.40;;;14.60;95.30;;;;;;4997340;28;20552;-55
2021/08/05 05:47:48;;;;;;;14.73;11.88;;;14.70;95.30;;;;;;4978407;28;20137;-52
2021/08/05 05:50:19;;;;;;;16.73;12.48;;;14.70;95.30;;;;;;4999991;28;20096;-53
2021/08/05 05:52:45;;;;;;;14.30;12.23;;;14.80;95.30;;;;;;5009073;28;20405;-51
2021/08/05 05:55:11;;;;;;;13.95;12.40;;;14.90;95.30;;;;;;5006560;28;20088;-50
2021/08/05 05:57:46;;;;;;;14.60;12.40;;;15.00;95.10;;;;;;5009821;28;20041;-49
2021/08/05 06:00:13;;;;;;;16.58;12.55;;;15.10;95.00;;;;;;4974759;28;20787;-54
2021/08/05 06:02:40;;;;;;;18.00;12.63;;;15.10;94.90;;;;;;4993375;28;20046;-54
2021/08/05 06:05:08;;;;;;;14.05;11.77;;;15.20;94.80;;;;;;4977741;28;20061;-51
2021/08/05 06:07:46;;;;;;;16.67;12.45;;;15.20;94.50;;;;;;4991375;28;20498;-51
2021/08/05 06:10:14;;;;;;;16.83;12.52;;;15.20;94.80;;;;;;5002170;28;20038;-53
2021/08/05 06:12:40;;;;;;;14.57;12.85;;;15.20;94.90;;;;;;5008705;28;20615;-56
2021/08/05 06:15:07;;;;;;;13.65;11.73;;;15.30;94.80;;;;;;4987689;28;20399;-55
2021/08/05 06:17:33;;;;;;;14.98;12.30;;;15.40;94.80;;;;;;5009880;28;20045;-50
2021/08/05 06:19:59;;;;;;;15.43;12.35;;;15.70;94.50;;;;;;5010672;28;20104;-53
2021/08/05 06:22:25;;;;;;;14.35;12.00;;;16.30;93.80;;;;;;5007150;28;20048;-56
2021/08/05 06:24:51;;;;;;;15.65;12.52;;;16.60;93.10;;;;;;5010171;28;20045;-49
2021/08/05 06:27:16;;;;;;;17.98;13.77;;;16.70;93.00;;;;;;5012752;28;20053;-54
2021/08/05 06:29:42;;;;;;;16.83;13.57;;;16.60;93.10;;;;;;5002537;28;20050;-55
2021/08/05 06:32:08;;;;;;;14.82;13.00;;;16.60;93.20;;;;;;5005509;28;20056;-55
2021/08/05 06:34:33;;;;;;;15.73;13.00;;;16.50;93.40;;;;;;5010175;28;20088;-55
2021/08/05 06:36:59;;;;;;;15.35;13.57;;;16.50;93.60;;;;;;5005202;28;20133;-52
2021/08/05 06:39:25;;;;;;;17.38;13.95;;;16.40;93.60;;;;;;5007388;28;20506;-51
2021/08/05 06:41:51;;;;;;;16.70;13.77;;;16.40;93.80;;;;;;4963035;28;20513;-51
2021/08/05 06:44:16;;;;;;;19.30;14.75;;;16.40;93.90;;;;;;5005663;28;20466;-51
2021/08/05 06:46:42;;;;;;;18.48;14.32;;;16.30;94.10;;;;;;5002857;28;20042;-51
2021/08/05 06:49:08;;;;;;;17.33;14.27;;;16.40;94.20;;;;;;5011448;28;20048;-48
2021/08/05 06:51:34;;;;;;;15.98;13.55;;;16.30;94.40;;;;;;4965201;28;20042;-54
2021/08/05 06:54:00;;;;;;;15.65;13.98;;;16.30;94.30;;;;;;4998728;28;20049;-48
2021/08/05 06:56:26;;;;;;;15.90;13.85;;;16.40;94.30;;;;;;4992448;28;20046;-49
2021/08/05 06:58:52;;;;;;;16.30;13.93;;;16.40;94.30;;;;;;4965860;28;20642;-51
2021/08/05 07:01:19;;;;;;;16.70;14.05;;;16.50;94.20;;;;;;5007742;28;20045;-50
2021/08/05 07:03:44;;;;;;;18.17;13.50;;;16.60;94.20;;;;;;4988967;28;20053;-50
2021/08/05 07:06:10;;;;;;;17.27;14.43;;;16.60;94.00;;;;;;5012115;28;20046;-56
2021/08/05 07:08:36;;;;;;;15.60;14.00;;;16.60;94.10;;;;;;5010494;28;20108;-55
2021/08/05 07:11:02;;;;;;;15.52;13.35;;;16.70;94.00;;;;;;5001858;28;20038;-56
2021/08/05 07:13:27;;;;;;;18.55;13.93;;;16.80;94.00;;;;;;4998050;28;20418;-54
2021/08/05 07:15:53;;;;;;;15.15;13.40;;;16.90;93.90;;;;;;5006392;28;20041;-55
2021/08/05 07:18:19;;;;;;;16.08;13.07;;;16.90;93.70;;;;;;5005776;28;20064;-56
2021/08/05 07:20:44;;;;;;;14.10;12.63;;;17.00;93.70;;;;;;5008219;28;20045;-56
2021/08/05 07:23:11;;;;;;;16.13;12.90;;;17.10;93.60;;;;;;5008531;28;20081;-56
2021/08/05 07:25:39;;;;;;;14.48;12.98;;;17.20;93.50;;;;;;4946172;28;20077;-53
2021/08/05 07:28:05;;;;;;;16.42;13.02;;;17.30;93.50;;;;;;4997521;28;20035;-52
2021/08/05 07:30:31;;;;;;;14.25;12.32;;;17.30;93.30;;;;;;4986447;28;20050;-55
2021/08/05 07:32:58;;;;;;;14.05;12.52;;;17.30;93.30;;;;;;5000615;28;20056;-52
2021/08/05 07:35:25;;;;;;;14.93;12.70;;;17.30;93.00;;;;;;4976763;28;20050;-51
2021/08/05 07:37:50;;;;;;;13.23;11.57;;;17.40;93.10;;;;;;5002404;28;20079;-54
2021/08/05 07:40:17;;;;;;;14.05;12.52;;;17.40;93.20;;;;;;5010958;28;20085;-52
2021/08/05 07:42:43;;;;;;;16.95;12.88;;;17.50;93.10;;;;;;4969425;28;20068;-48
2021/08/05 07:45:09;;;;;;;14.02;12.57;;;17.60;93.10;;;;;;4998361;28;20459;-52
2021/08/05 07:47:36;;;;;;;15.57;12.80;;;17.70;93.10;;;;;;4998650;28;20042;-48
2021/08/05 07:50:02;;;;;;;14.15;12.13;;;17.80;93.00;;;;;;4999785;28;20056;-58
2021/08/05 07:52:29;;;;;;;14.15;12.60;;;17.90;92.80;;;;;;5003423;28;20042;-52
2021/08/05 07:54:56;;;;;;;15.00;11.82;;;18.00;92.80;;;;;;4983868;28;20092;-51
2021/08/05 07:57:22;;;;;;;13.57;12.10;;;18.00;92.60;;;;;;5007020;28;20042;-54
2021/08/05 07:59:48;;;;;;;15.45;12.38;;;18.20;92.70;;;;;;5006381;28;20034;-56
2021/08/05 08:02:14;;;;;;;14.10;11.68;;;18.20;92.60;;;;;;4992011;28;20042;-53
2021/08/05 08:04:40;;;;;;;13.75;12.20;;;18.30;92.70;;;;;;4998525;28;20038;-52
2021/08/05 08:07:07;;;;;;;14.73;11.65;;;18.50;92.60;;;;;;4998881;28;20053;-52
2021/08/05 08:09:33;;;;;;;12.20;10.90;;;18.50;92.40;;;;;;4983851;28;20054;-49
2021/08/05 08:11:59;;;;;;;12.30;9.88;;;18.60;91.90;;;;;;5002219;28;20060;-52
2021/08/05 08:14:24;;;;;;;17.50;10.70;;;18.70;91.20;;;;;;5007909;28;20048;-52
2021/08/05 08:16:50;;;;;;;11.73;10.52;;;18.60;91.20;;;;;;5007232;28;20046;-48
2021/08/05 08:19:16;;;;;;;13.57;10.27;;;18.60;91.40;;;;;;4991260;28;20050;-51
2021/08/05 08:21:42;;;;;;;14.25;11.02;;;18.70;91.50;;;;;;4986130;28;20088;-54
2021/08/05 08:24:10;;;;;;;13.20;10.85;;;18.70;91.00;;;;;;4991664;28;20038;-52
2021/08/05 08:26:37;;;;;;;11.82;10.00;;;18.80;91.20;;;;;;4982434;28;20053;-50
2021/08/05 08:29:04;;;;;;;14.48;10.77;;;18.80;91.00;;;;;;4998548;28;20034;-52
2021/08/05 08:31:30;;;;;;;11.50;9.93;;;18.80;91.00;;;;;;5005418;28;20046;-52
2021/08/05 08:33:56;;;;;;;11.07;9.45;;;18.80;91.00;;;;;;4977889;28;20053;-52
2021/08/05 08:36:21;;;;;;;11.50;9.90;;;18.70;91.00;;;;;;4979835;28;20042;-48
2021/08/05 08:38:47;;;;;;;12.57;9.35;;;18.60;91.10;;;;;;4999505;28;20066;-54
2021/08/05 08:41:13;;;;;;;12.63;9.38;;;18.60;91.20;;;;;;4997149;28;20141;-54
2021/08/05 08:43:39;;;;;;;11.27;10.05;;;18.60;91.20;;;;;;4998594;28;20558;-56
2021/08/05 08:46:07;;;;;;;11.48;8.95;;;18.50;91.30;;;;;;5004473;28;20186;-53
2021/08/05 08:48:33;;;;;;;10.30;9.05;;;18.60;91.50;;;;;;4983524;28;20095;-54
2021/08/05 08:51:01;;;;;;;11.40;9.45;;;18.60;91.50;;;;;;4999337;28;20038;-55
2021/08/05 08:53:34;;;;;;;11.13;9.82;;;18.60;91.50;;;;;;5003951;28;20034;-55
2021/08/05 08:56:01;;;;;;;11.25;9.13;;;18.60;91.60;;;;;;5000913;28;20057;-55
2021/08/05 08:58:26;;;;;;;10.93;9.77;;;18.60;91.60;;;;;;5001494;28;20073;-55
2021/08/05 09:00:52;;;;;;;10.73;9.60;;;18.70;91.70;;;;;;5009177;28;20104;-55
2021/08/05 09:03:20;;;;;;;11.73;9.93;;;18.80;91.60;;;;;;4989060;28;20502;-56
2021/08/05 09:05:47;;;;;;;10.82;9.60;;;18.80;91.20;;;;;;4977554;28;20511;-55
2021/08/05 09:08:13;;;;;;;10.20;9.20;;;18.80;90.90;;;;;;4966344;28;20050;-54
2021/08/05 09:10:39;;;;;;;12.43;9.43;;;18.80;91.10;;;;;;5002201;28;20121;-54
2021/08/05 09:13:08;;;;;;;10.50;9.40;;;18.80;91.10;;;;;;5012660;28;20049;-55
2021/08/05 09:15:38;;;;;;;11.23;8.88;;;18.90;91.20;;;;;;4964537;28;20045;-55
2021/08/05 09:18:29;;;;;;;10.18;8.40;;;19.10;90.60;;;;;;4982248;28;20050;-55
2021/08/05 09:21:11;;;;;;;13.20;9.32;;;19.30;90.50;;;;;;5014003;28;20041;-54
2021/08/05 09:23:59;;;;;;;12.93;9.20;;;19.30;90.40;;;;;;4989510;28;20053;-56
2021/08/05 09:26:39;;;;;;;9.77;8.23;;;19.40;90.10;;;;;;4994925;28;20104;-55
2021/08/05 09:29:10;;;;;;;9.25;8.23;;;19.40;90.30;;;;;;4996926;28;20054;-55
2021/08/05 09:32:01;;;;;;;9.63;8.00;;;19.50;90.30;;;;;;5012644;28;20052;-55
2021/08/05 09:34:35;;;;;;;9.98;7.80;;;19.80;90.30;;;;;;5004290;28;20084;-50
2021/08/05 09:37:14;;;;;;;9.73;8.73;;;19.90;89.30;;;;;;5008041;28;20095;-52
2021/08/05 09:39:42;;;;;;;9.38;8.30;;;19.90;88.50;;;;;;4994216;28;20042;-48
2021/08/05 09:42:10;;;;;;;11.40;8.70;;;19.80;88.10;;;;;;5006138;28;20034;-53
2021/08/05 09:44:39;;;;;;;9.70;8.73;;;19.70;88.80;;;;;;4993992;28;20145;-52
2021/08/05 09:47:06;;;;;;;8.80;7.18;;;19.60;88.90;;;;;;5008002;28;20067;-50
2021/08/05 09:49:34;;;;;;;8.27;7.38;;;19.60;89.40;;;;;;4994238;28;20491;-51
2021/08/05 09:52:03;;;;;;;8.20;7.18;;;19.50;89.70;;;;;;4998791;28;20498;-53
2021/08/05 09:54:37;;;;;;;9.82;7.90;;;19.50;90.00;;;;;;4994046;28;20049;-52
2021/08/05 09:57:05;;;;;;;9.98;7.35;;;19.50;90.00;;;;;;4974288;28;20572;-51
2021/08/05 09:59:31;;;;;;;9.80;8.25;;;19.50;89.90;;;;;;5012126;28;20049;-50
2021/08/05 10:02:05;;;;;;;9.80;7.50;;;19.50;89.40;;;;;;4995035;28;20073;-48
2021/08/05 10:04:33;;;;;;;9.15;7.50;;;19.50;89.50;;;;;;4991756;28;20113;-51
2021/08/05 10:07:05;;;;;;;8.93;7.20;;;19.50;89.30;;;;;;5002892;28;20050;-54
2021/08/05 10:09:32;;;;;;;10.52;7.53;;;19.50;89.20;;;;;;4995425;28;20084;-48
2021/08/05 10:12:19;;;;;;;8.93;7.38;;;19.50;89.30;;;;;;5010695;28;20053;-52
2021/08/05 10:14:45;;;;;;;8.15;7.00;;;19.50;89.00;;;;;;4976773;28;20046;-51
2021/08/05 10:17:12;;;;;;;8.50;6.78;;;19.60;88.50;;;;;;5001422;28;20069;-54
2021/08/05 10:19:41;;;;;;;7.95;6.97;;;19.70;88.90;;;;;;4977861;28;20042;-53
2021/08/05 10:22:10;;;;;;;8.70;7.63;;;19.80;88.40;;;;;;5002701;28;20037;-50
2021/08/05 10:24:38;;;;;;;9.73;7.60;;;20.00;86.40;;;;;;5006159;28;20092;-53
2021/08/05 10:27:05;;;;;;;11.75;8.10;;;20.20;86.10;;;;;;4997627;28;20042;-54
2021/08/05 10:29:33;;;;;;;9.98;8.20;;;20.40;86.30;;;;;;5000878;28;20466;-53
2021/08/05 10:31:59;;;;;;;9.43;8.32;;;20.60;86.00;;;;;;4995771;28;20560;-54
2021/08/05 10:34:25;;;;;;;9.10;7.55;;;20.80;85.70;;;;;;4994563;28;20422;-55
2021/08/05 10:36:52;;;;;;;9.10;7.63;;;20.90;85.00;;;;;;4998085;28;20044;-53
2021/08/05 10:39:18;;;;;;;8.60;7.75;;;21.00;84.20;;;;;;5002819;28;20042;-55
2021/08/05 10:41:45;;;;;;;8.43;7.20;;;21.10;83.10;;;;;;4997672;28;20038;-57
2021/08/05 10:44:12;;;;;;;8.90;6.55;;;21.00;82.40;;;;;;5005904;28;20089;-54
2021/08/05 10:46:38;;;;;;;7.70;5.78;;;21.00;81.30;;;;;;4977124;28;20204;-54
2021/08/05 10:49:06;;;;;;;8.52;7.60;;;21.00;82.20;;;;;;4994217;28;20410;-53
2021/08/05 10:51:36;;;;;;;9.85;7.30;;;21.00;81.70;;;;;;4971228;28;20048;-54
2021/08/05 10:54:02;;;;;;;11.80;7.97;;;20.90;81.80;;;;;;4982339;28;20041;-53
2021/08/05 10:56:30;;;;;;;11.90;7.53;;;20.90;82.80;;;;;;5011180;28;20503;-55
2021/08/05 10:59:12;;;;;;;8.23;6.60;;;20.80;83.20;;;;;;4995432;28;20413;-55
2021/08/05 11:01:58;;;;;;;9.73;7.35;;;20.80;83.50;;;;;;4980878;28;20048;-54
2021/08/05 11:04:46;;;;;;;9.63;8.00;;;20.70;82.40;;;;;;4977840;28;20490;-56
2021/08/05 11:07:21;;;;;;;9.20;7.55;;;20.80;81.60;;;;;;5012066;28;20076;-51
2021/08/05 11:10:07;;;;;;;8.20;7.40;;;20.70;82.50;;;;;;4992166;28;20041;-54
2021/08/05 11:12:41;;;;;;;8.20;6.90;;;20.60;81.70;;;;;;5009699;28;20046;-53
2021/08/05 11:15:21;;;;;;;7.88;6.30;;;20.60;82.40;;;;;;4963481;28;20038;-54
2021/08/05 11:18:15;;;;;;;10.55;7.22;;;20.50;82.50;;;;;;4999623;28;20464;-51
2021/08/05 11:20:56;;;;;;;9.07;7.70;;;20.50;83.60;;;;;;5001183;28;20133;-53
2021/08/05 11:23:24;;;;;;;10.32;8.40;;;20.60;83.50;;;;;;5008486;28;20130;-54
2021/08/05 11:25:53;;;;;;;9.02;7.60;;;20.60;83.40;;;;;;4994969;28;20038;-54
2021/08/05 11:28:32;;;;;;;8.65;7.18;;;20.60;83.80;;;;;;5007352;28;20046;-54
2021/08/05 11:31:25;;;;;;;9.70;8.70;;;20.70;84.30;;;;;;4998668;28;20120;-52
2021/08/05 11:33:56;;;;;;;9.25;7.18;;;20.70;83.70;;;;;;4995394;28;20044;-55
2021/08/05 11:36:25;;;;;;;11.90;7.93;;;20.70;82.70;;;;;;4968407;28;20120;-55
2021/08/05 11:39:13;;;;;;;8.13;7.25;;;20.70;82.90;;;;;;5005470;28;20085;-53
2021/08/05 11:41:50;;;;;;;10.00;7.15;;;20.70;82.50;;;;;;5007639;28;20516;-53
2021/08/05 11:44:20;;;;;;;10.77;8.15;;;20.70;83.10;;;;;;5008522;28;20046;-54
2021/08/05 11:46:48;;;;;;;10.93;7.85;;;20.70;82.80;;;;;;5012953;28;20042;-54
2021/08/05 11:49:43;;;;;;;9.13;7.18;;;20.80;83.10;;;;;;4994946;28;20495;-55
2021/08/05 11:52:13;;;;;;;9.20;8.05;;;20.80;83.40;;;;;;4990996;28;20046;-54
2021/08/05 11:54:41;;;;;;;8.90;7.22;;;20.80;83.20;;;;;;4996646;28;20037;-55
2021/08/05 11:57:10;;;;;;;9.13;7.57;;;20.90;83.00;;;;;;4999155;28;20437;-53
2021/08/05 11:59:41;;;;;;;11.98;7.68;;;20.90;82.60;;;;;;4982956;28;20089;-54
2021/08/05 12:02:19;;;;;;;8.57;7.65;;;20.90;82.40;;;;;;5002810;28;20461;-54
2021/08/05 12:04:46;;;;;;;9.05;7.60;;;21.10;83.70;;;;;;4997851;28;20038;-54
2021/08/05 12:07:29;;;;;;;7.50;6.72;;;21.30;83.10;;;;;;4998831;28;20089;-55
2021/08/05 12:09:55;;;;;;;8.20;7.13;;;21.70;81.20;;;;;;4991164;28;20079;-54
2021/08/05 12:12:22;;;;;;;9.18;7.40;;;21.80;81.10;;;;;;5002127;28;20053;-54
2021/08/05 12:14:57;;;;;;;8.57;7.68;;;22.00;80.20;;;;;;5008544;28;20053;-57
2021/08/05 12:17:30;;;;;;;8.65;6.88;;;22.20;77.30;;;;;;5005314;28;20045;-54
2021/08/05 12:19:56;;;;;;;7.90;7.10;;;22.20;78.40;;;;;;4982159;28;20101;-56
2021/08/05 12:22:34;;;;;;;9.65;7.40;;;22.30;78.30;;;;;;5005215;28;20591;-57
2021/08/05 12:25:03;;;;;;;9.32;7.18;;;22.50;77.10;;;;;;4969719;28;20131;-54
2021/08/05 12:27:30;;;;;;;10.05;6.90;;;22.60;77.20;;;;;;4967361;28;20073;-54
2021/08/05 12:30:14;;;;;;;8.02;7.15;;;22.70;76.80;;;;;;4972354;28;20045;-54
2021/08/05 12:32:59;;;;;;;9.50;7.93;;;22.70;76.80;;;;;;5000242;28;20046;-56
2021/08/05 12:35:25;;;;;;;8.18;6.97;;;22.70;76.80;;;;;;5004531;28;20572;-55
2021/08/05 12:38:05;;;;;;;9.13;7.00;;;22.70;74.70;;;;;;4972500;28;20462;-54
2021/08/05 12:40:32;;;;;;;9.93;6.10;;;22.60;74.00;;;;;;5007533;28;20391;-54
2021/08/05 12:43:00;;;;;;;8.68;6.32;;;22.60;74.90;;;;;;5002739;28;20040;-53
2021/08/05 12:45:26;;;;;;;6.70;6.00;;;22.70;72.30;;;;;;5004906;28;20281;-54
2021/08/05 12:47:52;;;;;;;7.50;5.82;;;22.70;72.20;;;;;;4988229;28;20046;-51